• Join FlightAware (Why Join?)
  • Login
  • US Flag 
12:45AM EST


 

Airport Tracker/Info


-or-


 

Live Flight TrackerFlight Track Log ✈ N165JH ✈ 18-Feb-2014 ✈ KRYY - KGMU

Flight Track Log - Related Links

Times and Time Zones

All times are in EST time to prevent confusion due to time zone crossing. See the N165JH flight status page for this flight to view local times or setup timezone preferences in your user account.

Time Position Orientation Groundspeed Altitude Reporting Facility
EST Latitude Longitude Course Direction KTS MPH feet Rate Location/Type
02:19PM 34.0500 -84.6000 90° East 144 166 2,700  Level Atlanta TRACON
02:19PM 34.0500 -84.5667 90° East 151 174 3,200 540 Climbing Atlanta TRACON
02:21PM 34.0667 -84.5000 73° East 161 185 3,800 480 Climbing Atlanta TRACON
02:21PM 34.0667 -84.4667 90° East 172 198 4,200 420 Climbing Atlanta TRACON
02:22PM 34.0667 -84.4000 90° East 175 201 4,700 480 Climbing Atlanta TRACON
02:23PM 34.0667 -84.3500 90° East 179 206 5,200 480 Climbing Atlanta TRACON
02:24PM 34.1252 -84.3043 90° East  Level Estimated
02:24PM 34.0500 -84.2833 107° East 190 219 5,700  Level Atlanta TRACON
02:25PM 34.0500 -84.2167 90° East 186 214 6,200 540 Climbing Atlanta TRACON
02:26PM 34.0500 -84.1667 90° East 176 203 6,800 360 Climbing Atlanta TRACON
02:27PM 34.0333 -84.1000 107° East 174 200 7,000 60 Climbing Atlanta TRACON
02:28PM 34.0333 -84.0500 90° East 180 207 7,000  Level Atlanta TRACON
02:29PM 34.0167 -83.9833 107° East 180 207 7,000  Level Atlanta TRACON
02:30PM 34.0000 -83.9333 112° Southeast 179 206 7,000  Level Atlanta TRACON
02:31PM 34.0000 -83.8667 90° East 188 216 7,100  Climbing Atlanta TRACON
02:32PM 34.0167 -83.8167 68° East 188 216 7,100  Level Atlanta TRACON
02:33PM 34.0500 -83.7667 51° Northeast 188 216 7,100  Level Atlanta TRACON
02:34PM 34.0667 -83.7167 68° East 188 216 7,100  Level Atlanta TRACON
02:35PM 34.1000 -83.6500 59° Northeast 189 217 7,100  Level Atlanta TRACON
02:36PM 34.1167 -83.6000 68° East 189 217 7,100  Level Atlanta TRACON
02:37PM 34.1500 -83.5333 59° Northeast 189 217 7,100  Level Atlanta TRACON
02:39PM 34.1728 -83.4539 71° East 204 235 7,100  Level Atlanta Center
02:40PM 34.1933 -83.3958 67° East 194 223 7,100  Level Atlanta Center
02:41PM 34.2181 -83.3406 62° Northeast 189 217 7,100  Level Atlanta Center
02:42PM 34.2364 -83.2825 69° East 189 217 7,100  Level Atlanta Center
02:43PM 34.2550 -83.2319 66° East 189 217 7,100  Level Atlanta Center
02:44PM 34.2775 -83.1739 65° Northeast 189 217 7,100 -60 Level Atlanta Center
02:45PM 34.3147 -83.1258 47° Northeast 184 212 7,000  Descending Atlanta Center
02:46PM 34.3478 -83.0803 49° Northeast 184 212 7,100  Climbing Atlanta Center
02:47PM 34.3828 -83.0294 50° Northeast 184 212 7,100  Level Atlanta Center
02:48PM 34.4158 -82.9811 50° Northeast 184 212 7,100  Level Atlanta Center
02:49PM 34.4508 -82.9331 49° Northeast 184 212 7,100  Level Atlanta Center
02:50PM 34.4839 -82.8847 50° Northeast 184 212 7,100  Level Atlanta Center
02:51PM 34.5167 -82.8339 52° Northeast 184 212 7,100  Level Atlanta Center
02:52PM 34.5497 -82.7878 49° Northeast 184 212 7,100  Level Atlanta Center
02:53PM 34.5847 -82.7394 49° Northeast 184 212 7,100 -180 Level Atlanta Center
02:54PM 34.6175 -82.6858 53° Northeast 184 212 6,800 -420 Descending Atlanta Center
02:55PM 34.6544 -82.6347 49° Northeast 189 217 6,300 60 Descending Atlanta Center
02:56PM 34.6872 -82.5889 49° Northeast 189 217 7,000 660 Climbing Atlanta Center
02:58PM 34.7336 -82.5164 51° Northeast  Level FlightAware Approximate
03:05PM 34.8333 -82.3500 90° East  Level FlightAware Approximate
03:06PM 34.8479 -82.3500 90° East  Level Estimated
03:07PM 34.8479 -82.3500 90° East  Level Estimated
03:08PM 34.8479 -82.3500 90° East  Level Estimated
03:09PM 34.8479 -82.3500 90° East  Level Estimated
03:10PM 34.8479 -82.3500 90° East  Level Estimated
03:11PM 34.8479 -82.3500 90° East  Level Estimated